createdAt,value
2019-04-03T00:01:12.384Z,60.20
2019-04-03T00:03:40.882Z,60.40
2019-04-03T00:06:28.685Z,60.30
2019-04-03T00:08:57.122Z,60.30
2019-04-03T00:11:25.575Z,60.90
2019-04-03T00:13:54.030Z,60.70
2019-04-03T00:16:22.481Z,60.60
2019-04-03T00:18:50.909Z,63.10
2019-04-03T00:21:19.852Z,65.70
2019-04-03T00:23:48.764Z,67.10
2019-04-03T00:26:17.236Z,66.80
2019-04-03T00:28:45.659Z,66.40
2019-04-03T00:31:14.107Z,65.20
2019-04-03T00:33:42.552Z,65.20
2019-04-03T00:36:11.086Z,65.00
2019-04-03T00:38:39.495Z,65.20
2019-04-03T00:41:07.949Z,65.10
2019-04-03T00:43:36.396Z,65.00
2019-04-03T00:46:05.012Z,64.60
2019-04-03T00:48:33.431Z,64.30
2019-04-03T00:51:01.872Z,64.10
2019-04-03T00:53:30.301Z,64.10
2019-04-03T00:55:58.743Z,64.20
2019-04-03T00:58:32.904Z,64.20
2019-04-03T01:01:01.345Z,63.80
2019-04-03T01:03:29.785Z,65.00
2019-04-03T01:05:58.339Z,65.30
2019-04-03T01:08:27.833Z,64.80
2019-04-03T01:10:58.740Z,65.00
2019-04-03T01:13:27.719Z,64.80
2019-04-03T01:15:56.173Z,64.90
2019-04-03T01:18:24.600Z,65.30
2019-04-03T01:20:53.046Z,65.50
2019-04-03T01:23:21.471Z,65.00
2019-04-03T01:25:49.908Z,64.80
2019-04-03T01:28:18.334Z,64.90
2019-04-03T01:30:46.771Z,64.90
2019-04-03T01:33:16.462Z,64.80
2019-04-03T01:35:47.134Z,64.80
2019-04-03T01:38:15.928Z,65.20
2019-04-03T01:40:44.382Z,65.70
2019-04-03T01:43:12.820Z,65.80
2019-04-03T01:45:41.304Z,66.00
2019-04-03T01:48:09.768Z,65.60
2019-04-03T01:50:38.217Z,65.50
2019-04-03T01:53:06.648Z,65.40
2019-04-03T01:55:35.186Z,65.90
2019-04-03T01:58:06.314Z,66.00
2019-04-03T02:00:33.781Z,66.00
2019-04-03T02:03:02.483Z,66.40
2019-04-03T02:05:31.039Z,66.50
2019-04-03T02:07:59.517Z,66.20
2019-04-03T02:10:28.519Z,66.00
2019-04-03T02:12:56.955Z,66.00
2019-04-03T02:15:25.401Z,66.40
2019-04-03T02:17:54.941Z,66.40
2019-04-03T02:20:24.619Z,66.40
2019-04-03T02:22:53.932Z,66.70
2019-04-03T02:25:22.392Z,67.10
2019-04-03T02:27:50.894Z,67.50
2019-04-03T02:30:19.361Z,67.80
2019-04-03T02:32:48.403Z,68.30
2019-04-03T02:35:17.045Z,68.70
2019-04-03T02:37:48.703Z,69.40
2019-04-03T02:40:16.015Z,69.60
2019-04-03T02:42:44.574Z,69.50
2019-04-03T02:45:14.607Z,69.70
2019-04-03T02:47:43.268Z,70.00
2019-04-03T02:50:14.315Z,70.10
2019-04-03T02:52:42.297Z,70.40
2019-04-03T02:55:10.726Z,70.80
2019-04-03T02:57:39.238Z,71.10
2019-04-03T03:00:09.595Z,71.40
2019-04-03T03:02:38.136Z,71.30
2019-04-03T03:05:07.022Z,71.20
2019-04-03T03:07:36.301Z,70.70
2019-04-03T03:10:07.327Z,70.60
2019-04-03T03:12:37.408Z,70.80
2019-04-03T03:15:10.964Z,70.30
2019-04-03T03:17:38.583Z,69.80
2019-04-03T03:20:09.025Z,70.30
2019-04-03T03:22:38.983Z,70.80
2019-04-03T03:25:08.457Z,71.00
2019-04-03T03:27:40.899Z,71.40
2019-04-03T03:30:30.469Z,71.80
2019-04-03T03:32:38.790Z,71.40
2019-04-03T03:35:14.494Z,70.80
2019-04-03T03:37:38.655Z,70.20
2019-04-03T03:40:07.383Z,70.20
2019-04-03T03:42:36.000Z,69.80
2019-04-03T03:45:06.516Z,70.00
2019-04-03T03:47:37.076Z,71.00
2019-04-03T03:50:07.536Z,71.70
2019-04-03T03:52:38.390Z,72.90
2019-04-03T03:55:08.379Z,72.70
2019-04-03T03:57:40.472Z,72.70
2019-04-03T04:00:09.466Z,72.80
2019-04-03T04:02:42.737Z,73.10
2019-04-03T04:05:10.820Z,72.50
2019-04-03T04:07:38.827Z,72.30
2019-04-03T04:10:07.444Z,72.70
2019-04-03T04:12:39.857Z,72.40
2019-04-03T04:15:06.917Z,72.20
2019-04-03T04:17:35.925Z,71.30
2019-04-03T04:20:06.779Z,70.70
2019-04-03T04:22:35.492Z,70.30
2019-04-03T04:25:05.403Z,70.10
2019-04-03T04:27:53.196Z,70.00
2019-04-03T04:30:21.704Z,69.20
2019-04-03T04:32:50.327Z,69.10
2019-04-03T04:35:20.806Z,69.30
2019-04-03T04:37:48.917Z,69.40
2019-04-03T04:40:17.371Z,69.20
2019-04-03T04:42:45.810Z,69.60
2019-04-03T04:45:14.315Z,69.60
2019-04-03T04:47:45.653Z,69.10
2019-04-03T04:50:14.440Z,69.60
2019-04-03T04:52:42.899Z,69.30
2019-04-03T04:55:11.339Z,69.40
2019-04-03T04:57:41.051Z,69.50
2019-04-03T05:00:09.865Z,69.10
2019-04-03T05:02:38.304Z,68.80
2019-04-03T05:05:09.083Z,68.80
2019-04-03T05:07:37.164Z,69.00
2019-04-03T05:10:08.607Z,69.20
2019-04-03T05:12:39.030Z,68.30
2019-04-03T05:15:08.239Z,68.50
2019-04-03T05:17:36.704Z,68.90
2019-04-03T05:20:08.927Z,69.20
2019-04-03T05:22:37.373Z,69.10
2019-04-03T05:25:06.778Z,69.00
2019-04-03T05:27:35.344Z,69.60
2019-04-03T05:30:05.802Z,69.40
2019-04-03T05:32:34.400Z,69.70
2019-04-03T05:35:02.856Z,70.20
2019-04-03T05:37:31.416Z,70.30
2019-04-03T05:39:59.849Z,69.80
2019-04-03T05:42:29.161Z,69.70
2019-04-03T05:44:58.082Z,70.00
2019-04-03T05:47:26.557Z,69.90
2019-04-03T05:49:56.090Z,69.70
2019-04-03T05:52:25.175Z,70.50
2019-04-03T05:54:53.607Z,70.00
2019-04-03T05:57:22.061Z,70.10
2019-04-03T05:59:59.517Z,69.70
2019-04-03T06:02:22.092Z,69.50
2019-04-03T06:04:51.233Z,69.50
2019-04-03T06:07:19.898Z,69.90
2019-04-03T06:09:48.338Z,70.40
2019-04-03T06:12:18.660Z,70.50
2019-04-03T06:14:49.729Z,70.30
2019-04-03T06:17:17.114Z,70.00
2019-04-03T06:19:45.552Z,70.20
2019-04-03T06:22:16.340Z,69.90
2019-04-03T06:24:44.151Z,69.80
2019-04-03T06:27:12.604Z,70.10
2019-04-03T06:29:41.121Z,69.90
2019-04-03T06:32:09.553Z,69.80
2019-04-03T06:34:39.001Z,69.20
2019-04-03T06:37:08.151Z,69.60
2019-04-03T06:39:36.789Z,69.40
2019-04-03T06:42:05.354Z,69.20
2019-04-03T06:44:33.800Z,69.30
2019-04-03T06:47:02.244Z,69.30
2019-04-03T06:49:30.674Z,69.00
2019-04-03T06:51:59.117Z,68.70
2019-04-03T06:54:27.802Z,68.40
2019-04-03T06:56:56.686Z,68.70
2019-04-03T06:59:25.135Z,68.00
2019-04-03T07:01:53.664Z,67.90
2019-04-03T07:04:22.192Z,68.10
2019-04-03T07:06:50.631Z,68.10
2019-04-03T07:09:23.458Z,68.20
2019-04-03T07:11:49.237Z,67.20
2019-04-03T07:14:17.919Z,67.90
2019-04-03T07:16:46.586Z,66.40
2019-04-03T07:19:15.020Z,67.00
2019-04-03T07:21:43.446Z,64.90
2019-04-03T07:24:11.902Z,64.50
2019-04-03T07:26:40.664Z,64.40
2019-04-03T07:29:11.469Z,63.90
2019-04-03T07:31:39.289Z,63.80
2019-04-03T07:34:07.833Z,63.90
2019-04-03T07:36:36.641Z,62.80
2019-04-03T07:39:10.390Z,62.70
2019-04-03T07:41:40.878Z,63.50
2019-04-03T07:44:07.942Z,61.40
2019-04-03T07:46:36.412Z,61.10
2019-04-03T07:49:05.126Z,60.40
2019-04-03T07:51:33.561Z,59.40
2019-04-03T07:54:04.340Z,60.10
2019-04-03T07:56:32.307Z,59.50
2019-04-03T07:59:02.794Z,58.90
2019-04-03T08:01:30.965Z,58.80
2019-04-03T08:03:59.644Z,58.30
2019-04-03T08:06:28.404Z,58.20
2019-04-03T08:09:07.228Z,57.60
2019-04-03T08:11:27.021Z,57.30
2019-04-03T08:13:55.755Z,57.80
2019-04-03T08:16:24.275Z,57.00
2019-04-03T08:18:52.724Z,56.70
2019-04-03T08:21:21.161Z,56.50
2019-04-03T08:23:49.616Z,56.00
2019-04-03T08:26:19.181Z,56.70
2019-04-03T08:28:48.375Z,55.50
2019-04-03T08:31:16.805Z,54.60
2019-04-03T08:33:45.304Z,53.70
2019-04-03T08:36:23.208Z,53.90
2019-04-03T08:38:45.074Z,53.50
2019-04-03T08:41:14.313Z,53.70
2019-04-03T08:43:42.913Z,53.90
2019-04-03T08:46:11.352Z,54.20
2019-04-03T08:48:39.807Z,53.90
2019-04-03T08:51:08.410Z,53.70
2019-04-03T08:53:39.315Z,53.60
2019-04-03T08:56:07.046Z,53.60
2019-04-03T08:58:35.589Z,53.50
2019-04-03T09:01:05.363Z,53.30
2019-04-03T09:03:34.262Z,53.60
2019-04-03T09:06:03.167Z,52.90
2019-04-03T09:08:31.771Z,52.90
2019-04-03T09:11:00.192Z,53.70
2019-04-03T09:13:28.644Z,53.30
2019-04-03T09:15:59.202Z,53.10
2019-04-03T09:18:29.942Z,53.30
2019-04-03T09:20:57.391Z,52.60
2019-04-03T09:23:26.034Z,52.90
2019-04-03T09:25:54.545Z,52.50
2019-04-03T09:28:22.990Z,52.10
2019-04-03T09:30:53.988Z,52.40
2019-04-03T09:33:24.961Z,52.30
2019-04-03T09:35:52.106Z,52.20
2019-04-03T09:38:20.739Z,51.60
2019-04-03T09:40:49.612Z,51.20
2019-04-03T09:43:19.671Z,51.60
2019-04-03T09:45:48.332Z,51.10
2019-04-03T09:48:16.766Z,51.40
2019-04-03T09:50:46.313Z,51.20
2019-04-03T09:53:15.363Z,50.60
2019-04-03T09:55:43.803Z,51.10
2019-04-03T09:58:12.525Z,50.10
2019-04-03T10:00:42.325Z,50.20
2019-04-03T10:03:11.667Z,49.60
2019-04-03T10:05:40.166Z,49.40
2019-04-03T10:08:09.736Z,49.40
2019-04-03T10:10:38.352Z,47.90
2019-04-03T10:13:06.821Z,47.70
2019-04-03T10:15:35.267Z,48.40
2019-04-03T10:18:03.769Z,47.20
2019-04-03T10:20:32.284Z,47.30
2019-04-03T10:23:06.587Z,47.30
2019-04-03T10:25:37.071Z,46.40
2019-04-03T10:28:05.595Z,45.80
2019-04-03T10:30:34.301Z,45.60
2019-04-03T10:33:03.081Z,45.10
2019-04-03T10:35:31.836Z,44.10
2019-04-03T10:38:00.312Z,44.10
2019-04-03T10:40:28.774Z,43.50
2019-04-03T10:42:59.872Z,42.90
2019-04-03T10:45:27.855Z,42.40
2019-04-03T10:47:56.810Z,42.10
2019-04-03T10:50:25.775Z,41.60
2019-04-03T10:52:54.356Z,41.00
2019-04-03T10:55:23.139Z,41.30
2019-04-03T10:57:51.617Z,41.00
2019-04-03T11:00:20.144Z,39.80
2019-04-03T11:02:48.710Z,38.90
2019-04-03T11:05:17.476Z,39.00
2019-04-03T11:07:45.928Z,38.60
2019-04-03T11:10:14.995Z,38.30
2019-04-03T11:12:43.432Z,38.40
2019-04-03T11:15:12.796Z,38.70
2019-04-03T11:17:41.992Z,38.50
2019-04-03T11:20:11.250Z,38.10
2019-04-03T11:25:14.019Z,41.60
2019-04-03T11:27:43.354Z,40.40
2019-04-03T11:30:54.597Z,53.40
2019-04-03T11:30:54.599Z,39.00
2019-04-03T11:32:46.675Z,39.20
2019-04-03T11:35:16.037Z,37.40
2019-04-03T11:37:44.889Z,36.80
2019-04-03T11:40:17.413Z,35.60
2019-04-03T11:42:44.827Z,35.30
2019-04-03T11:45:14.003Z,34.80
2019-04-03T11:48:01.777Z,36.20
2019-04-03T11:50:30.211Z,36.00
2019-04-03T11:53:01.210Z,35.50
2019-04-03T11:55:28.889Z,35.60
2019-04-03T11:57:57.312Z,34.10
2019-04-03T12:00:27.698Z,34.10
2019-04-03T12:02:56.159Z,33.20
2019-04-03T12:05:24.883Z,32.30
2019-04-03T12:07:55.538Z,32.60
2019-04-03T12:10:25.951Z,31.90
2019-04-03T12:12:53.835Z,31.70
2019-04-03T12:15:22.438Z,31.40
2019-04-03T12:17:51.168Z,30.50
2019-04-03T12:20:19.728Z,30.20
2019-04-03T12:22:48.259Z,30.70
2019-04-03T12:25:17.325Z,30.80
2019-04-03T12:27:46.577Z,29.90
2019-04-03T12:30:16.254Z,29.90
2019-04-03T12:32:48.631Z,29.20
2019-04-03T12:35:16.470Z,29.00
2019-04-03T12:37:45.116Z,28.30
2019-04-03T12:40:14.817Z,28.00
2019-04-03T12:42:43.507Z,26.70
2019-04-03T12:45:12.602Z,25.90
2019-04-03T12:47:42.868Z,26.20
2019-04-03T12:50:12.812Z,25.50
2019-04-03T12:52:44.730Z,25.70
2019-04-03T12:55:12.258Z,26.00
2019-04-03T12:57:40.722Z,26.60
2019-04-03T13:00:12.737Z,27.20
2019-04-03T13:02:41.375Z,28.10
2019-04-03T13:05:10.195Z,28.10
2019-04-03T13:07:38.649Z,28.50
2019-04-03T13:10:09.015Z,29.20
2019-04-03T13:12:37.509Z,29.80
2019-04-03T13:15:10.757Z,30.10
2019-04-03T13:17:39.275Z,30.20
2019-04-03T13:20:08.565Z,30.70
2019-04-03T13:22:37.795Z,31.40
2019-04-03T13:25:07.596Z,31.10
2019-04-03T13:27:36.163Z,30.80
2019-04-03T13:30:12.427Z,30.30
2019-04-03T13:32:40.476Z,30.40
2019-04-03T13:35:10.231Z,29.40
2019-04-03T13:37:38.794Z,29.20
2019-04-03T13:40:08.300Z,29.30
2019-04-03T13:42:36.761Z,29.70
2019-04-03T13:45:09.652Z,29.50
2019-04-03T13:47:41.582Z,30.10
2019-04-03T13:50:09.634Z,31.70
2019-04-03T13:52:42.915Z,31.90
2019-04-03T13:55:08.764Z,33.40
2019-04-03T13:57:37.354Z,33.50
2019-04-03T14:00:18.343Z,34.00
2019-04-03T14:02:37.777Z,35.10
2019-04-03T14:05:07.656Z,34.30
2019-04-03T14:07:36.288Z,34.20
2019-04-03T14:10:08.040Z,34.30
2019-04-03T14:12:38.264Z,34.00
2019-04-03T14:15:08.538Z,33.70
2019-04-03T14:17:37.220Z,34.30
2019-04-03T14:20:10.780Z,34.70
2019-04-03T14:22:39.537Z,33.90
2019-04-03T14:25:17.888Z,34.10
2019-04-03T14:27:38.501Z,35.00
2019-04-03T14:30:11.062Z,34.80
2019-04-03T14:32:39.167Z,34.60
2019-04-03T14:35:36.654Z,35.40
2019-04-03T14:37:38.698Z,34.70
2019-04-03T14:40:11.137Z,33.40
2019-04-03T14:42:38.541Z,31.50
2019-04-03T14:45:08.050Z,29.90
2019-04-03T14:47:36.799Z,28.90
2019-04-03T14:50:08.069Z,27.70
2019-04-03T14:52:36.674Z,26.80
2019-04-03T14:55:23.318Z,25.70
2019-04-03T14:57:37.331Z,25.40
2019-04-03T15:00:23.424Z,24.60
2019-04-03T15:02:40.213Z,24.30
2019-04-03T15:05:11.914Z,24.80
2019-04-03T15:07:45.543Z,24.60
2019-04-03T15:10:11.662Z,24.70
2019-04-03T15:12:46.698Z,24.80
2019-04-03T15:15:18.333Z,25.60
2019-04-03T15:17:47.020Z,25.80
2019-04-03T15:20:18.367Z,26.30
2019-04-03T15:22:46.257Z,26.60
2019-04-03T15:25:15.916Z,25.50
2019-04-03T15:27:45.056Z,25.70
2019-04-03T15:30:13.833Z,25.00
2019-04-03T15:32:42.413Z,25.50
2019-04-03T15:35:11.383Z,25.50
2019-04-03T15:37:41.425Z,25.90
2019-04-03T15:40:10.341Z,26.20
2019-04-03T15:42:40.715Z,26.80
2019-04-03T15:45:10.364Z,26.90
2019-04-03T15:47:44.835Z,26.40
2019-04-03T15:50:11.132Z,26.90
2019-04-03T15:52:43.142Z,27.70
2019-04-03T15:55:10.624Z,28.10
2019-04-03T15:57:40.790Z,28.50
2019-04-03T16:00:12.457Z,29.00
2019-04-03T16:02:47.288Z,29.40
2019-04-03T16:05:16.978Z,29.20
2019-04-03T16:07:45.445Z,29.20
2019-04-03T16:10:14.373Z,29.70
2019-04-03T16:12:43.996Z,29.90
2019-04-03T16:15:12.796Z,30.00
2019-04-03T16:17:41.330Z,29.90
2019-04-03T16:20:10.435Z,30.70
2019-04-03T16:22:39.150Z,31.30
2019-04-03T16:25:08.214Z,31.90
2019-04-03T16:27:36.732Z,32.00
2019-04-03T16:30:07.503Z,32.70
2019-04-03T16:32:36.544Z,32.70
2019-04-03T16:35:08.597Z,32.40
2019-04-03T16:37:37.297Z,32.70
2019-04-03T16:40:09.058Z,32.40
2019-04-03T16:42:38.048Z,33.30
2019-04-03T16:45:11.118Z,33.60
2019-04-03T16:47:40.173Z,34.70
2019-04-03T16:50:11.105Z,34.00
2019-04-03T16:52:40.038Z,33.80
2019-04-03T16:55:09.147Z,34.50
2019-04-03T16:57:38.243Z,34.80
2019-04-03T17:00:10.083Z,35.70
2019-04-03T17:02:38.801Z,36.20
2019-04-03T17:05:10.499Z,36.90
2019-04-03T17:07:39.165Z,37.40
2019-04-03T17:10:09.939Z,37.60
2019-04-03T17:12:38.591Z,38.30
2019-04-03T17:15:09.621Z,39.00
2019-04-03T17:17:38.941Z,40.20
2019-04-03T17:20:09.777Z,40.00
2019-04-03T17:22:40.875Z,40.50
2019-04-03T17:25:09.497Z,41.10
2019-04-03T17:27:38.113Z,41.60
2019-04-03T17:30:08.224Z,42.10
2019-04-03T17:32:36.871Z,42.80
2019-04-03T17:35:08.859Z,43.40
2019-04-03T17:37:37.421Z,43.90
2019-04-03T17:40:08.960Z,44.00
2019-04-03T17:42:39.345Z,44.30
2019-04-03T17:45:07.843Z,44.40
2019-04-03T17:47:36.378Z,44.80
2019-04-03T17:50:08.817Z,45.40
2019-04-03T17:52:37.348Z,45.70
2019-04-03T17:55:10.984Z,46.00
2019-04-03T17:57:39.946Z,46.50
2019-04-03T18:00:20.608Z,46.40
2019-04-03T18:02:47.785Z,46.70
2019-04-03T18:05:16.494Z,46.90
2019-04-03T18:07:44.980Z,47.10
2019-04-03T18:10:13.972Z,47.50
2019-04-03T18:12:45.373Z,47.80
2019-04-03T18:15:13.062Z,47.60
2019-04-03T18:17:41.588Z,48.00
2019-04-03T18:20:13.290Z,48.20
2019-04-03T18:22:41.085Z,48.50
2019-04-03T18:25:11.307Z,48.60
2019-04-03T18:27:39.840Z,49.00
2019-04-03T18:30:11.973Z,49.00
2019-04-03T18:32:39.982Z,49.10
2019-04-03T18:35:09.038Z,49.20
2019-04-03T18:37:40.488Z,49.30
2019-04-03T18:40:09.870Z,49.30
2019-04-03T18:42:38.413Z,49.50
2019-04-03T18:45:07.093Z,49.70
2019-04-03T18:47:41.471Z,49.70
2019-04-03T18:50:09.782Z,50.00
2019-04-03T18:52:38.910Z,50.10
2019-04-03T18:55:07.830Z,50.10
2019-04-03T18:57:36.297Z,50.30
2019-04-03T19:00:09.152Z,50.40
2019-04-03T19:02:37.869Z,50.80
2019-04-03T19:05:09.877Z,50.80
2019-04-03T19:07:39.008Z,50.90
2019-04-03T19:10:17.956Z,51.30
2019-04-03T19:12:43.296Z,51.40
2019-04-03T19:15:11.614Z,52.20
2019-04-03T19:17:40.407Z,52.30
2019-04-03T19:20:10.998Z,51.90
2019-04-03T19:22:40.120Z,52.20
2019-04-03T19:25:08.810Z,51.80
2019-04-03T19:27:37.264Z,52.00
2019-04-03T19:30:07.696Z,52.10
2019-04-03T19:32:36.477Z,52.40
2019-04-03T19:35:09.326Z,52.60
2019-04-03T19:37:37.870Z,53.00
2019-04-03T19:40:09.643Z,52.90
2019-04-03T19:42:38.146Z,52.90
2019-04-03T19:45:07.939Z,53.00
2019-04-03T19:47:36.554Z,53.30
2019-04-03T19:50:08.860Z,53.00
2019-04-03T19:52:39.437Z,53.20
2019-04-03T19:55:07.818Z,53.50
2019-04-03T19:57:36.385Z,53.40
2019-04-03T20:00:08.034Z,53.50
2019-04-03T20:02:38.053Z,53.50
2019-04-03T20:05:26.121Z,53.60
2019-04-03T20:07:54.586Z,53.60
2019-04-03T20:10:23.113Z,53.80
2019-04-03T20:12:51.578Z,53.60
2019-04-03T20:15:22.413Z,54.00
2019-04-03T20:17:50.201Z,54.20
2019-04-03T20:20:18.687Z,54.20
2019-04-03T20:22:47.141Z,54.50
2019-04-03T20:25:15.625Z,54.50
2019-04-03T20:27:47.074Z,54.70
2019-04-03T20:30:14.261Z,54.70
2019-04-03T20:32:42.720Z,55.00
2019-04-03T20:35:12.704Z,54.80
2019-04-03T20:37:43.851Z,54.80
2019-04-03T20:40:11.896Z,55.20
2019-04-03T20:42:41.487Z,55.00
2019-04-03T20:45:10.188Z,54.80
2019-04-03T20:47:38.649Z,54.80
2019-04-03T20:50:07.834Z,55.00
2019-04-03T20:52:36.498Z,54.90
2019-04-03T20:55:06.573Z,54.90
2019-04-03T20:57:35.103Z,54.90
2019-04-03T21:00:08.915Z,54.80
2019-04-03T21:02:37.336Z,54.80
2019-04-03T21:05:07.747Z,55.10
2019-04-03T21:07:36.548Z,55.00
2019-04-03T21:10:08.443Z,55.10
2019-04-03T21:12:36.975Z,55.50
2019-04-03T21:15:08.764Z,55.50
2019-04-03T21:17:36.704Z,55.80
2019-04-03T21:20:06.631Z,55.60
2019-04-03T21:22:35.244Z,55.80
2019-04-03T21:25:05.938Z,55.70
2019-04-03T21:27:34.574Z,55.90
2019-04-03T21:30:03.902Z,55.90
2019-04-03T21:32:32.653Z,56.70
2019-04-03T21:35:02.975Z,56.10
2019-04-03T21:37:31.378Z,56.30
2019-04-03T21:40:04.295Z,56.40
2019-04-03T21:42:30.155Z,56.90
2019-04-03T21:44:58.679Z,56.80
2019-04-03T21:47:27.165Z,56.80
2019-04-03T21:49:55.633Z,56.90
2019-04-03T21:52:24.209Z,56.80
2019-04-03T21:54:52.882Z,57.10
2019-04-03T21:57:21.358Z,57.30
2019-04-03T21:59:49.845Z,57.30
2019-04-03T22:02:18.273Z,57.50
2019-04-03T22:04:46.708Z,57.40
2019-04-03T22:07:15.150Z,57.70
2019-04-03T22:09:43.877Z,57.40
2019-04-03T22:12:12.324Z,57.30
2019-04-03T22:14:40.970Z,57.30
2019-04-03T22:17:10.968Z,57.40
2019-04-03T22:19:39.412Z,57.60
2019-04-03T22:22:07.865Z,57.80
2019-04-03T22:24:37.822Z,58.00
2019-04-03T22:27:06.574Z,58.00
2019-04-03T22:29:35.035Z,57.80
2019-04-03T22:32:03.485Z,57.50
2019-04-03T22:34:31.913Z,58.20
2019-04-03T22:37:03.868Z,57.80
2019-04-03T22:39:30.527Z,57.90
2019-04-03T22:41:59.050Z,58.10
2019-04-03T22:44:27.495Z,59.00
2019-04-03T22:46:55.939Z,58.20
2019-04-03T22:49:24.383Z,58.60
2019-04-03T22:51:53.511Z,58.90
2019-04-03T22:54:22.016Z,58.60
2019-04-03T22:56:50.477Z,58.70
2019-04-03T22:59:18.901Z,58.70
2019-04-03T23:01:48.190Z,58.90
2019-04-03T23:04:16.622Z,59.00
2019-04-03T23:06:45.105Z,59.10
2019-04-03T23:09:13.539Z,59.00
2019-04-03T23:11:42.006Z,59.50
2019-04-03T23:14:10.460Z,59.90
2019-04-03T23:16:38.916Z,59.70
2019-04-03T23:19:07.355Z,59.40
2019-04-03T23:21:35.783Z,59.90
2019-04-03T23:24:04.230Z,60.00
2019-04-03T23:26:32.906Z,60.20
2019-04-03T23:29:03.062Z,60.50
2019-04-03T23:31:31.627Z,60.30
2019-04-03T23:34:00.064Z,59.90
2019-04-03T23:36:28.532Z,59.90
2019-04-03T23:38:57.130Z,60.30
2019-04-03T23:41:25.690Z,61.40
2019-04-03T23:43:54.125Z,60.70
2019-04-03T23:46:23.224Z,61.20
2019-04-03T23:48:51.667Z,61.30
2019-04-03T23:51:23.417Z,61.40
2019-04-03T23:53:50.295Z,61.90
2019-04-03T23:56:18.737Z,62.10
2019-04-03T23:58:47.169Z,62.50
